Portada
METAR-TAF:

METAR-TAF

Aeroports :

Broome, Austràlia

latitud: 17-57S, longitud: 122-13E, altitud: 17 m

Observació

L'informe es va fer fa 31 minuts, a les 13:00 UTC
Vent 4 kt del Est/Sud-Est
Temperatura 20°C
Humitat 40%
Pressió 1013 hPa
Visibilitat 10 km o més

METAR: YBRM 141300Z AUTO 11004KT 9999 // NCD 20/06 Q1013

Hora: 21:31 (13:31 UTC)

Pronòstic

L'informe es va fer fa 2 hores i 25 minuts, a les 11:06 UTC
Pronòstic vàlid del 14 a les 12 UTC al 15 a les 12 UTC
Vent 7 kt del Est/Sud-Est
Visibilitat 10 km o més
sense núvols per sota de 1500 mi sense presència de cumulonimbus.
A partir de les 15 a les 0100 UTC
Vent 16 kt del Est amb ràfegues de 26 kt
Visibilitat 10 km o més
sense núvols per sota de 1500 mi sense presència de cumulonimbus.
A partir de les 15 a les 0500 UTC
Vent 12 kt del Est
Visibilitat 10 km o més
sense núvols per sota de 1500 mi sense presència de cumulonimbus.

TAF: YBRM 141106Z 1412/1512 12007KT CAVOK FM150100 09016G26KT CAVOK FM150500 10012KT CAVOK

Observacions i pronòstics meteorològics de més de 4000 aeroports (METAR i TAF).

Les estacions disponibles són els punts grocs i vermells al mapa.

Posi el ratolí al punt desitjat per veure el nom de l'estació.

Feu clic per veure les observacions i els pronòstics meteorològics.

Per canviar el mapa: feu clic els botons verds amb una creu de color negre per apropar; al botó verd amb un guió per allunyar la imatge; o en les fletxes verdes per a mapes adjacents.


METAR-TAF: